Time;durP1;ratioP1;P1;durP2;ratioP2;P2;SDS_P1;SDS_P2;PMS_P1;PMS_P2;Temp;Humidity;BMP_temperature;BMP_pressure;BME280_temperature;BME280_humidity;BME280_pressure;Samples;Min_cycle;Max_cycle;Signal;HPM_P1;HPM_P2
2023/09/16 00:01:14;;;;;;;25.37;16.20;;;15.40;99.90;;;;;;5011828;28;20457;-69
2023/09/16 00:03:42;;;;;;;20.47;14.77;;;15.40;99.90;;;;;;5015360;28;20449;-68
2023/09/16 00:06:12;;;;;;;22.87;16.80;;;15.40;99.90;;;;;;5012627;28;20484;-68
2023/09/16 00:08:43;;;;;;;24.63;17.60;;;15.30;99.90;;;;;;5006932;28;20943;-67
2023/09/16 00:11:11;;;;;;;23.77;16.43;;;15.30;99.90;;;;;;5008079;28;20442;-68
2023/09/16 00:13:41;;;;;;;25.20;16.97;;;15.20;99.90;;;;;;5008163;28;20507;-68
2023/09/16 00:16:12;;;;;;;20.57;15.50;;;15.20;99.90;;;;;;5014437;28;20449;-68
2023/09/16 00:18:40;;;;;;;22.37;16.30;;;15.20;99.90;;;;;;5011799;28;20495;-68
2023/09/16 00:21:10;;;;;;;23.93;15.27;;;15.10;99.90;;;;;;5008960;28;20446;-68
2023/09/16 00:23:38;;;;;;;22.57;16.53;;;15.10;99.90;;;;;;5013589;28;20449;-68
2023/09/16 00:26:07;;;;;;;22.13;16.57;;;15.00;99.90;;;;;;5007885;28;20449;-68
2023/09/16 00:28:35;;;;;;;24.23;16.57;;;15.10;99.90;;;;;;5012062;28;20485;-68
2023/09/16 00:31:06;;;;;;;26.70;18.33;;;15.10;99.90;;;;;;5011944;28;20452;-68
2023/09/16 00:33:34;;;;;;;25.93;17.73;;;15.00;99.90;;;;;;5011680;28;20446;-67
2023/09/16 00:36:02;;;;;;;28.40;19.07;;;15.00;99.90;;;;;;5008245;28;20537;-67
2023/09/16 00:38:30;;;;;;;24.70;17.30;;;15.00;99.90;;;;;;5014459;28;21043;-68
2023/09/16 00:40:58;;;;;;;25.00;16.90;;;14.90;99.90;;;;;;5011758;28;20476;-68
2023/09/16 00:43:27;;;;;;;24.57;16.87;;;15.00;99.90;;;;;;5011097;28;20940;-68
2023/09/16 00:45:55;;;;;;;21.53;15.80;;;15.00;99.90;;;;;;5012152;28;20444;-68
2023/09/16 00:48:23;;;;;;;25.10;17.03;;;14.90;99.90;;;;;;5012305;28;20527;-68
2023/09/16 00:50:52;;;;;;;25.03;17.40;;;15.00;99.90;;;;;;5012451;28;20509;-69
2023/09/16 00:53:21;;;;;;;21.93;15.07;;;15.00;99.90;;;;;;5012059;28;20445;-68
2023/09/16 00:55:50;;;;;;;22.47;16.37;;;14.90;99.90;;;;;;5011245;28;20469;-68
2023/09/16 00:58:18;;;;;;;25.37;17.40;;;14.80;99.90;;;;;;5014727;28;21164;-68
2023/09/16 01:00:48;;;;;;;27.13;18.67;;;14.80;99.90;;;;;;5015643;28;20449;-68
2023/09/16 01:03:17;;;;;;;21.53;15.20;;;14.70;99.90;;;;;;5017833;28;20452;-68
2023/09/16 01:05:47;;;;;;;23.20;15.83;;;14.80;99.90;;;;;;5017228;28;20526;-68
2023/09/16 01:08:16;;;;;;;24.90;16.43;;;14.80;99.90;;;;;;5011849;28;20506;-67
2023/09/16 01:10:44;;;;;;;23.50;16.50;;;14.80;99.90;;;;;;5015175;28;21289;-68
2023/09/16 01:13:12;;;;;;;32.10;18.57;;;14.80;99.90;;;;;;5015100;28;20943;-69
2023/09/16 01:15:47;;;;;;;26.73;18.10;;;14.80;99.90;;;;;;5015551;28;20534;-69
2023/09/16 01:18:24;;;;;;;25.60;16.50;;;14.70;99.90;;;;;;5008924;28;20456;-68
2023/09/16 01:20:55;;;;;;;27.40;18.37;;;14.70;99.90;;;;;;5007656;28;20480;-69
2023/09/16 01:23:23;;;;;;;23.27;16.90;;;14.70;99.90;;;;;;5017527;28;21008;-68
2023/09/16 01:25:52;;;;;;;21.53;15.53;;;14.70;99.90;;;;;;5012733;28;20456;-68
2023/09/16 01:28:22;;;;;;;22.53;16.03;;;14.70;99.90;;;;;;5011937;28;20491;-68
2023/09/16 01:30:51;;;;;;;26.60;17.43;;;14.70;99.90;;;;;;5012330;28;20460;-68
2023/09/16 01:33:23;;;;;;;23.13;16.97;;;14.60;99.90;;;;;;5012450;28;20470;-68
2023/09/16 01:35:55;;;;;;;24.43;16.40;;;14.60;99.90;;;;;;5013064;28;20504;-69
2023/09/16 01:38:25;;;;;;;23.77;16.60;;;14.60;99.90;;;;;;5012087;28;20502;-68
2023/09/16 01:40:56;;;;;;;22.93;17.00;;;14.60;99.90;;;;;;5012370;28;20451;-68
2023/09/16 01:43:24;;;;;;;24.10;16.87;;;14.50;99.90;;;;;;5012600;28;20532;-68
2023/09/16 01:45:53;;;;;;;22.73;16.60;;;14.50;99.90;;;;;;5012093;28;20454;-68
2023/09/16 01:48:21;;;;;;;22.67;16.00;;;14.50;99.90;;;;;;5011462;28;20518;-68
2023/09/16 01:51:03;;;;;;;26.23;17.10;;;14.60;99.90;;;;;;5012229;28;20502;-67
2023/09/16 01:53:31;;;;;;;24.30;16.57;;;14.50;99.90;;;;;;5012072;28;20477;-68
2023/09/16 01:56:01;;;;;;;23.00;16.43;;;14.50;99.90;;;;;;5011459;28;20458;-68
2023/09/16 01:58:28;;;;;;;28.37;17.57;;;14.40;99.90;;;;;;5002868;28;20559;-69
2023/09/16 02:00:56;;;;;;;23.73;16.83;;;14.40;99.90;;;;;;5011288;28;20504;-68
2023/09/16 02:03:24;;;;;;;26.23;16.87;;;14.30;99.90;;;;;;5010663;28;20453;-68
2023/09/16 02:05:52;;;;;;;21.90;15.00;;;14.40;99.90;;;;;;5011909;28;20872;-68
2023/09/16 02:08:20;;;;;;;24.40;16.00;;;14.40;99.90;;;;;;5010944;28;20498;-68
2023/09/16 02:10:48;;;;;;;22.30;15.80;;;14.50;99.90;;;;;;5011460;28;20446;-68
2023/09/16 02:13:17;;;;;;;21.83;15.40;;;14.40;99.90;;;;;;5011727;28;20543;-68
2023/09/16 02:15:46;;;;;;;22.23;14.83;;;14.20;99.90;;;;;;5011505;28;20462;-69
2023/09/16 02:18:14;;;;;;;23.70;15.33;;;14.40;99.90;;;;;;5010903;28;20978;-70
2023/09/16 02:20:41;;;;;;;22.87;14.80;;;14.40;99.90;;;;;;5011409;28;20444;-70
2023/09/16 02:23:10;;;;;;;21.17;14.10;;;14.40;99.90;;;;;;5011654;28;20491;-69
2023/09/16 02:25:37;;;;;;;20.63;14.47;;;14.40;99.90;;;;;;5011407;28;20526;-69
2023/09/16 02:28:06;;;;;;;24.10;15.30;;;14.30;99.90;;;;;;5010824;28;20997;-68
2023/09/16 02:30:35;;;;;;;24.73;16.97;;;14.20;99.90;;;;;;5011637;28;20442;-69
2023/09/16 02:33:03;;;;;;;24.57;16.30;;;14.20;99.90;;;;;;5011789;28;20446;-69
2023/09/16 02:35:31;;;;;;;22.47;16.20;;;14.20;99.90;;;;;;5011662;28;20844;-69
2023/09/16 02:38:02;;;;;;;23.40;16.40;;;14.10;99.90;;;;;;5010905;28;20985;-69
2023/09/16 02:40:30;;;;;;;21.03;14.77;;;14.10;99.90;;;;;;5011460;28;20527;-68
2023/09/16 02:42:57;;;;;;;24.13;15.30;;;14.20;99.90;;;;;;5011337;28;20506;-68
2023/09/16 02:45:25;;;;;;;24.33;16.03;;;14.10;99.90;;;;;;5011118;28;20447;-69
2023/09/16 02:47:55;;;;;;;24.97;17.13;;;14.10;99.90;;;;;;5010571;28;20536;-69
2023/09/16 02:50:23;;;;;;;26.27;17.80;;;14.00;99.90;;;;;;5011174;28;20453;-68
2023/09/16 02:52:51;;;;;;;22.30;14.90;;;14.00;99.90;;;;;;5011485;28;20874;-69
2023/09/16 02:55:19;;;;;;;21.90;15.90;;;14.00;99.90;;;;;;5010961;28;20487;-69
2023/09/16 02:57:46;;;;;;;21.20;15.30;;;14.00;99.90;;;;;;5018794;28;20552;-69
2023/09/16 03:00:15;;;;;;;26.77;16.00;;;14.00;99.90;;;;;;5019226;28;20535;-69
2023/09/16 03:02:46;;;;;;;25.83;18.00;;;13.90;99.90;;;;;;5010828;28;20975;-69
2023/09/16 03:05:16;;;;;;;26.80;17.30;;;13.90;99.90;;;;;;5010658;28;20443;-69
2023/09/16 03:07:45;;;;;;;26.33;17.97;;;13.90;99.90;;;;;;5010420;28;20467;-69
2023/09/16 03:10:13;;;;;;;24.97;20.03;;;13.90;99.90;;;;;;5010653;28;20849;-69
2023/09/16 03:12:41;;;;;;;27.53;16.93;;;14.00;99.90;;;;;;5010708;28;20446;-68
2023/09/16 03:15:10;;;;;;;27.07;17.07;;;14.00;99.90;;;;;;5010370;28;20456;-69
2023/09/16 03:17:38;;;;;;;22.83;14.80;;;14.00;99.90;;;;;;5009928;28;20461;-69
2023/09/16 03:20:16;;;;;;;22.80;15.93;;;13.90;99.90;;;;;;5010371;28;20434;-69
2023/09/16 03:22:44;;;;;;;20.67;14.37;;;13.90;99.90;;;;;;5010137;28;21290;-69
2023/09/16 03:25:11;;;;;;;23.80;15.60;;;13.90;99.90;;;;;;5011939;28;20943;-69
2023/09/16 03:27:39;;;;;;;21.80;14.27;;;13.90;99.90;;;;;;5010209;28;20502;-69
2023/09/16 03:30:09;;;;;;;19.77;13.50;;;13.90;99.90;;;;;;5011135;28;20491;-68
2023/09/16 03:32:39;;;;;;;23.03;15.40;;;13.80;99.90;;;;;;5012098;28;20480;-68
2023/09/16 03:35:08;;;;;;;20.90;14.50;;;13.80;99.90;;;;;;5010612;28;20453;-69
2023/09/16 03:37:37;;;;;;;21.43;14.77;;;13.80;99.90;;;;;;5010406;28;20554;-68
2023/09/16 03:40:06;;;;;;;19.80;13.97;;;13.80;99.90;;;;;;5011303;28;20439;-69
2023/09/16 03:42:34;;;;;;;23.30;13.70;;;13.80;99.90;;;;;;5010239;28;20450;-68
2023/09/16 03:45:02;;;;;;;21.47;13.60;;;13.80;99.90;;;;;;5010807;28;20454;-69
2023/09/16 03:47:46;;;;;;;20.57;13.77;;;13.80;99.90;;;;;;5010510;28;20481;-69
2023/09/16 03:50:14;;;;;;;20.20;14.10;;;13.80;99.90;;;;;;5009870;28;20483;-68
2023/09/16 03:52:43;;;;;;;19.53;13.10;;;13.80;99.90;;;;;;5011534;28;20500;-69
2023/09/16 03:55:11;;;;;;;19.80;12.90;;;13.90;99.90;;;;;;5010163;28;20505;-69
2023/09/16 03:57:39;;;;;;;22.23;14.30;;;13.80;99.90;;;;;;5011087;28;20498;-69
2023/09/16 04:00:10;;;;;;;21.40;13.10;;;13.80;99.90;;;;;;5018552;28;20499;-68
2023/09/16 04:02:39;;;;;;;20.73;13.70;;;13.90;99.90;;;;;;5009833;28;20442;-70
2023/09/16 04:05:08;;;;;;;20.63;13.00;;;13.90;99.90;;;;;;5010705;28;20444;-68
2023/09/16 04:07:36;;;;;;;20.60;13.17;;;13.80;99.90;;;;;;5010175;28;20458;-68
2023/09/16 04:10:07;;;;;;;17.57;12.13;;;13.80;99.90;;;;;;5010091;28;20514;-68
2023/09/16 04:12:35;;;;;;;19.60;13.17;;;13.80;99.90;;;;;;5011105;28;20820;-68
2023/09/16 04:15:03;;;;;;;17.80;12.50;;;13.80;99.90;;;;;;5011089;28;20438;-69
2023/09/16 04:17:31;;;;;;;19.40;13.27;;;13.80;99.90;;;;;;5012855;28;20458;-68
2023/09/16 04:19:59;;;;;;;18.50;12.33;;;13.80;99.90;;;;;;5009683;28;20431;-69
2023/09/16 04:22:30;;;;;;;19.60;12.90;;;13.80;99.90;;;;;;5010407;28;20433;-68
2023/09/16 04:24:58;;;;;;;16.43;11.50;;;13.80;99.90;;;;;;5011251;28;20821;-68
2023/09/16 04:27:27;;;;;;;18.63;12.17;;;13.90;99.90;;;;;;5010317;28;20545;-69
2023/09/16 04:29:55;;;;;;;16.67;11.23;;;14.00;99.90;;;;;;5009410;28;20531;-68
2023/09/16 04:32:23;;;;;;;15.80;10.77;;;13.90;99.90;;;;;;5010052;28;20456;-68
2023/09/16 04:34:51;;;;;;;17.93;11.80;;;13.90;99.90;;;;;;5010885;28;20443;-68
2023/09/16 04:37:19;;;;;;;17.87;11.87;;;13.80;99.90;;;;;;5009187;28;20497;-68
2023/09/16 04:39:47;;;;;;;17.20;10.50;;;13.80;99.90;;;;;;5009491;28;20447;-69
2023/09/16 04:42:15;;;;;;;17.00;11.10;;;13.90;99.90;;;;;;5010450;28;20500;-69
2023/09/16 04:44:44;;;;;;;20.30;11.90;;;13.90;99.90;;;;;;5010176;28;20449;-68
2023/09/16 04:47:12;;;;;;;19.20;11.73;;;14.00;99.90;;;;;;5008708;28;20472;-68
2023/09/16 04:49:40;;;;;;;17.17;11.30;;;13.90;99.90;;;;;;5011160;28;20547;-68
2023/09/16 04:52:09;;;;;;;17.40;11.10;;;13.90;99.90;;;;;;5011146;28;21048;-68
2023/09/16 04:54:37;;;;;;;19.33;12.87;;;13.80;99.90;;;;;;5013394;28;20438;-68
2023/09/16 04:57:05;;;;;;;18.87;12.40;;;13.70;99.90;;;;;;5009749;28;20529;-69
2023/09/16 04:59:33;;;;;;;16.80;11.83;;;13.70;99.90;;;;;;5002137;28;20526;-68
2023/09/16 05:02:02;;;;;;;18.40;11.10;;;13.70;99.90;;;;;;5009806;28;20806;-69
2023/09/16 05:04:30;;;;;;;17.43;11.87;;;13.80;99.90;;;;;;5002410;28;20434;-67
2023/09/16 05:06:58;;;;;;;18.17;11.87;;;13.80;99.90;;;;;;5010069;28;21215;-68
2023/09/16 05:09:26;;;;;;;18.30;12.40;;;13.70;99.90;;;;;;5009236;28;20481;-69
2023/09/16 05:11:54;;;;;;;18.90;11.87;;;13.80;99.90;;;;;;5011508;28;20443;-68
2023/09/16 05:14:22;;;;;;;18.50;11.93;;;13.70;99.90;;;;;;5009140;28;20524;-68
2023/09/16 05:16:50;;;;;;;18.83;11.93;;;13.70;99.90;;;;;;5010143;28;20530;-68
2023/09/16 05:19:20;;;;;;;19.30;12.77;;;13.70;99.90;;;;;;5009386;28;20441;-69
2023/09/16 05:21:48;;;;;;;17.83;11.50;;;13.70;99.90;;;;;;5009055;28;20446;-69
2023/09/16 05:24:15;;;;;;;16.57;11.40;;;13.70;99.90;;;;;;5009057;28;20442;-69
2023/09/16 05:26:43;;;;;;;17.47;11.23;;;13.70;99.90;;;;;;5008550;28;20531;-68
2023/09/16 05:29:11;;;;;;;19.47;13.37;;;13.60;99.90;;;;;;5008799;28;20551;-69
2023/09/16 05:31:39;;;;;;;20.17;13.60;;;13.60;99.90;;;;;;5009285;28;20485;-68
2023/09/16 05:34:07;;;;;;;24.30;14.30;;;13.70;99.90;;;;;;5011697;28;20443;-68
2023/09/16 05:36:37;;;;;;;20.53;14.80;;;13.70;99.90;;;;;;5011989;28;20445;-69
2023/09/16 05:39:05;;;;;;;27.60;14.03;;;13.90;99.90;;;;;;5012457;28;20466;-69
2023/09/16 05:41:35;;;;;;;20.87;15.03;;;13.90;99.90;;;;;;5012643;28;20466;-69
2023/09/16 05:44:03;;;;;;;20.67;14.33;;;14.10;99.90;;;;;;5012646;28;20785;-69
2023/09/16 05:46:32;;;;;;;22.87;16.27;;;14.10;99.90;;;;;;5011533;28;21027;-69
2023/09/16 05:49:07;;;;;;;21.90;14.00;;;14.10;99.90;;;;;;5012740;28;20464;-69
2023/09/16 05:51:37;;;;;;;21.13;15.13;;;14.20;99.90;;;;;;5005413;28;20497;-69
2023/09/16 05:54:05;;;;;;;23.13;15.53;;;14.30;99.90;;;;;;5012421;28;20474;-69
2023/09/16 05:56:37;;;;;;;22.53;15.90;;;14.40;99.90;;;;;;5004006;28;20441;-69
2023/09/16 05:59:05;;;;;;;22.47;16.20;;;14.50;99.90;;;;;;5013378;28;20497;-69
2023/09/16 06:01:33;;;;;;;22.97;16.30;;;14.60;99.90;;;;;;5012021;28;20493;-69
2023/09/16 06:04:01;;;;;;;24.27;17.33;;;14.70;99.90;;;;;;5012109;28;20441;-69
2023/09/16 06:06:29;;;;;;;25.10;17.03;;;14.80;99.90;;;;;;5011686;28;20481;-68
2023/09/16 06:08:58;;;;;;;22.23;14.50;;;14.80;99.90;;;;;;5012108;28;20500;-69
2023/09/16 06:11:28;;;;;;;22.20;16.10;;;14.90;99.90;;;;;;5011552;28;20474;-68
2023/09/16 06:13:56;;;;;;;24.27;17.60;;;14.90;99.90;;;;;;5011704;28;20444;-69
2023/09/16 06:16:24;;;;;;;23.80;16.60;;;15.00;99.90;;;;;;5011341;28;20552;-69
2023/09/16 06:18:52;;;;;;;20.80;15.83;;;15.00;99.90;;;;;;5011476;28;20499;-69
2023/09/16 06:21:21;;;;;;;21.43;15.27;;;15.00;99.90;;;;;;5011697;28;20440;-70
2023/09/16 06:23:49;;;;;;;23.67;15.67;;;15.10;99.90;;;;;;5011600;28;20444;-69
2023/09/16 06:26:18;;;;;;;20.10;14.57;;;15.20;99.90;;;;;;5010858;28;20474;-70
2023/09/16 06:28:46;;;;;;;22.33;15.20;;;15.20;99.90;;;;;;5011391;28;20504;-69
2023/09/16 06:31:14;;;;;;;20.53;15.57;;;15.30;99.90;;;;;;5011164;28;20477;-70
2023/09/16 06:33:42;;;;;;;20.47;14.60;;;15.40;99.90;;;;;;5011596;28;20502;-69
2023/09/16 06:36:10;;;;;;;21.60;14.20;;;15.50;99.90;;;;;;5010958;28;20448;-69
2023/09/16 06:38:38;;;;;;;20.40;14.77;;;15.50;99.90;;;;;;5011770;28;20457;-69
2023/09/16 06:41:06;;;;;;;21.70;15.67;;;15.60;99.90;;;;;;5011666;28;20857;-70
2023/09/16 06:43:35;;;;;;;23.00;15.90;;;15.70;99.90;;;;;;5002832;28;20817;-69
2023/09/16 06:46:03;;;;;;;21.20;15.20;;;15.80;99.90;;;;;;5011074;28;20521;-69
2023/09/16 06:48:31;;;;;;;21.80;14.63;;;15.90;99.90;;;;;;5010913;28;20536;-70
2023/09/16 06:50:59;;;;;;;23.90;15.60;;;16.00;99.90;;;;;;5011276;28;21011;-69
2023/09/16 06:53:28;;;;;;;22.00;15.50;;;16.10;99.90;;;;;;5011030;28;20503;-70
2023/09/16 06:55:56;;;;;;;20.63;15.60;;;16.20;99.90;;;;;;5010823;28;20445;-69
2023/09/16 06:58:24;;;;;;;21.90;15.60;;;16.20;99.90;;;;;;5010197;28;20470;-70
2023/09/16 07:00:53;;;;;;;20.43;14.10;;;16.30;99.90;;;;;;5010753;28;20442;-70
2023/09/16 07:03:21;;;;;;;21.53;15.27;;;16.40;99.90;;;;;;5010745;28;20520;-69
2023/09/16 07:05:50;;;;;;;19.13;14.53;;;16.40;99.90;;;;;;5010927;28;20948;-70
2023/09/16 07:08:19;;;;;;;18.43;13.10;;;16.50;99.90;;;;;;5010280;28;20864;-69
2023/09/16 07:10:47;;;;;;;18.90;13.77;;;16.70;99.90;;;;;;5010424;28;20473;-70
2023/09/16 07:13:15;;;;;;;18.47;13.00;;;16.80;99.90;;;;;;5010841;28;20813;-70
2023/09/16 07:15:43;;;;;;;19.10;14.50;;;16.90;99.90;;;;;;5010994;28;20442;-68
2023/09/16 07:18:13;;;;;;;18.57;13.47;;;17.00;99.90;;;;;;5010149;28;20552;-70
2023/09/16 07:20:41;;;;;;;22.00;13.20;;;17.10;99.90;;;;;;5010506;28;20430;-69
2023/09/16 07:23:09;;;;;;;18.87;14.10;;;17.30;99.90;;;;;;5010413;28;20957;-70
2023/09/16 07:25:37;;;;;;;21.13;14.60;;;17.50;99.90;;;;;;5002232;28;20445;-69
2023/09/16 07:28:07;;;;;;;21.20;13.90;;;17.70;99.90;;;;;;5009867;28;20527;-70
2023/09/16 07:30:36;;;;;;;18.40;13.27;;;17.80;99.90;;;;;;5010384;28;20433;-70
2023/09/16 07:33:05;;;;;;;19.33;14.50;;;17.90;99.90;;;;;;5010278;28;20453;-70
2023/09/16 07:35:35;;;;;;;19.80;13.73;;;18.00;99.90;;;;;;5010274;28;20529;-69
2023/09/16 07:38:03;;;;;;;18.40;14.60;;;18.20;99.90;;;;;;5009404;28;20894;-70
2023/09/16 07:40:32;;;;;;;20.10;14.40;;;18.40;99.90;;;;;;5009998;28;20995;-70
2023/09/16 07:43:00;;;;;;;19.30;13.50;;;18.60;99.90;;;;;;5009989;28;20446;-68
2023/09/16 07:45:28;;;;;;;17.73;12.47;;;18.70;99.90;;;;;;5009811;28;20496;-70
2023/09/16 07:47:56;;;;;;;18.53;12.33;;;18.80;99.90;;;;;;5009529;28;20469;-67
2023/09/16 07:50:24;;;;;;;17.00;12.47;;;19.00;99.90;;;;;;5009717;28;20858;-68
2023/09/16 07:52:54;;;;;;;17.70;12.70;;;19.10;99.90;;;;;;5010716;28;20481;-68
2023/09/16 07:55:22;;;;;;;16.17;12.33;;;19.20;99.90;;;;;;5008856;28;20442;-68
2023/09/16 07:57:50;;;;;;;17.97;11.67;;;19.40;99.90;;;;;;5009414;28;20972;-68
2023/09/16 08:00:18;;;;;;;17.87;12.97;;;19.50;99.90;;;;;;5009845;28;20448;-69
2023/09/16 08:02:46;;;;;;;16.70;10.63;;;19.60;99.90;;;;;;5009940;28;20516;-69
2023/09/16 08:05:14;;;;;;;16.13;11.20;;;19.70;99.90;;;;;;5009385;28;20445;-70
2023/09/16 08:07:42;;;;;;;16.80;12.00;;;19.80;99.90;;;;;;5008977;28;20520;-70
2023/09/16 08:10:11;;;;;;;17.40;12.17;;;19.80;99.90;;;;;;5009514;28;20457;-70
2023/09/16 08:12:39;;;;;;;15.07;10.40;;;20.00;99.90;;;;;;5009255;28;21070;-67
2023/09/16 08:15:08;;;;;;;14.97;11.20;;;20.20;99.90;;;;;;5009408;28;20445;-67
2023/09/16 08:17:37;;;;;;;15.70;10.97;;;20.40;99.90;;;;;;5008919;28;20532;-66
2023/09/16 08:20:07;;;;;;;15.87;12.03;;;20.60;99.90;;;;;;5009458;28;21027;-68
2023/09/16 08:22:34;;;;;;;16.57;12.57;;;20.70;99.90;;;;;;5009018;28;20452;-69
2023/09/16 08:25:03;;;;;;;16.70;10.30;;;20.80;99.90;;;;;;5009422;28;20446;-68
2023/09/16 08:27:33;;;;;;;15.53;10.53;;;20.90;99.90;;;;;;5008721;28;20480;-69
2023/09/16 08:30:01;;;;;;;16.03;10.20;;;20.90;99.90;;;;;;5009354;28;20890;-67
2023/09/16 08:32:29;;;;;;;14.80;9.50;;;21.00;99.90;;;;;;5009428;28;20584;-68
2023/09/16 08:34:57;;;;;;;16.80;10.50;;;21.20;99.90;;;;;;5009521;28;20445;-66
2023/09/16 08:37:25;;;;;;;15.43;9.90;;;21.30;99.90;;;;;;5008573;28;20906;-67
2023/09/16 08:39:53;;;;;;;14.37;10.10;;;21.30;99.90;;;;;;5009376;28;20541;-67
2023/09/16 08:42:29;;;;;;;13.37;9.27;;;21.50;99.90;;;;;;5009151;28;20514;-68
2023/09/16 08:45:00;;;;;;;14.90;9.00;;;21.70;99.90;;;;;;5009399;28;20446;-68
2023/09/16 08:47:33;;;;;;;14.10;10.17;;;21.90;99.90;;;;;;5010796;28;20810;-67
2023/09/16 08:50:05;;;;;;;13.53;9.23;;;22.00;99.90;;;;;;5009420;28;20442;-67
2023/09/16 08:52:41;;;;;;;13.90;9.23;;;22.20;99.90;;;;;;5008712;28;20477;-67
2023/09/16 08:55:13;;;;;;;14.43;9.10;;;22.30;99.90;;;;;;5009111;28;20524;-67
2023/09/16 08:57:45;;;;;;;13.23;9.20;;;22.50;99.90;;;;;;5008529;28;20473;-65
2023/09/16 09:00:16;;;;;;;12.97;7.73;;;22.70;99.90;;;;;;5009155;28;20980;-66
2023/09/16 09:02:44;;;;;;;15.60;11.60;;;22.80;99.90;;;;;;5009100;28;20437;-68
2023/09/16 09:05:14;;;;;;;13.23;10.10;;;23.20;99.90;;;;;;5008918;28;20438;-65
2023/09/16 09:07:43;;;;;;;14.03;10.13;;;23.40;99.90;;;;;;5010986;28;20465;-68
2023/09/16 09:10:12;;;;;;;14.73;10.80;;;23.50;99.90;;;;;;5013121;28;20450;-68
2023/09/16 09:12:42;;;;;;;14.40;10.70;;;23.80;99.90;;;;;;5013386;28;20563;-68
2023/09/16 09:15:12;;;;;;;16.73;9.10;;;24.20;99.90;;;;;;5013507;28;20924;-67
2023/09/16 09:17:44;;;;;;;12.60;8.90;;;24.40;99.90;;;;;;5012606;28;20470;-70
2023/09/16 09:20:16;;;;;;;13.30;8.73;;;24.80;99.90;;;;;;5013348;28;20972;-66
2023/09/16 09:22:46;;;;;;;11.90;7.80;;;25.20;99.90;;;;;;5013857;28;20454;-67
2023/09/16 09:25:14;;;;;;;15.43;8.17;;;25.30;99.90;;;;;;5012390;28;20838;-67
2023/09/16 09:27:42;;;;;;;12.80;7.90;;;25.60;99.90;;;;;;5012027;28;20527;-69
2023/09/16 09:30:11;;;;;;;12.57;9.20;;;26.00;99.90;;;;;;5012056;28;20442;-67
2023/09/16 09:32:45;;;;;;;11.13;7.57;;;26.30;99.90;;;;;;5003470;28;20488;-68
2023/09/16 09:35:14;;;;;;;11.37;7.03;;;26.30;99.90;;;;;;5010702;28;20442;-68
2023/09/16 09:37:42;;;;;;;12.37;8.33;;;26.40;99.90;;;;;;5009804;28;20895;-67
2023/09/16 09:40:13;;;;;;;13.93;9.33;;;26.50;99.90;;;;;;5011175;28;20438;-67
2023/09/16 09:42:42;;;;;;;12.60;8.03;;;26.50;99.90;;;;;;5010784;28;20442;-66
2023/09/16 09:45:11;;;;;;;12.70;7.57;;;26.60;99.90;;;;;;5011375;28;20465;-67
2023/09/16 09:47:41;;;;;;;14.97;9.27;;;26.80;99.90;;;;;;5002481;28;20450;-66
2023/09/16 09:50:14;;;;;;;11.67;8.30;;;27.00;99.90;;;;;;5011204;28;20943;-67
2023/09/16 09:52:47;;;;;;;11.53;7.63;;;27.10;99.90;;;;;;5011922;28;20482;-65
2023/09/16 09:55:16;;;;;;;12.10;6.80;;;27.20;99.90;;;;;;5012463;28;20819;-66
2023/09/16 09:57:46;;;;;;;10.07;5.97;;;27.30;99.90;;;;;;5011639;28;20556;-65
2023/09/16 10:00:16;;;;;;;10.63;6.87;;;27.60;99.90;;;;;;5012536;28;20450;-66
2023/09/16 10:02:45;;;;;;;9.10;5.73;;;27.70;99.90;;;;;;5004723;28;20441;-66
2023/09/16 10:05:16;;;;;;;10.40;6.40;;;28.00;99.90;;;;;;5011934;28;20449;-66
2023/09/16 10:07:45;;;;;;;9.03;5.57;;;28.30;99.90;;;;;;5004214;28;20891;-67
2023/09/16 10:10:16;;;;;;;9.73;5.97;;;28.50;98.30;;;;;;5012357;28;20474;-67
2023/09/16 10:12:45;;;;;;;11.37;6.57;;;29.00;96.50;;;;;;5012502;28;20502;-67
2023/09/16 10:15:13;;;;;;;9.07;5.37;;;29.00;96.20;;;;;;5009294;28;20438;-67
2023/09/16 10:17:42;;;;;;;9.50;5.43;;;29.10;94.50;;;;;;5011061;28;20470;-70
2023/09/16 10:20:13;;;;;;;10.30;5.70;;;28.80;94.00;;;;;;5011828;28;20776;-69
2023/09/16 10:22:44;;;;;;;9.53;6.00;;;29.00;93.80;;;;;;5008443;28;20442;-67
2023/09/16 10:25:13;;;;;;;10.00;5.80;;;29.40;92.20;;;;;;5007516;28;20445;-69
2023/09/16 10:27:49;;;;;;;11.20;7.20;;;29.70;92.90;;;;;;5006826;28;20480;-68
2023/09/16 10:30:18;;;;;;;9.23;5.17;;;29.90;90.10;;;;;;5006788;28;20437;-67
2023/09/16 10:32:46;;;;;;;9.10;4.70;;;30.30;88.50;;;;;;5007347;28;21020;-68
2023/09/16 10:35:15;;;;;;;8.77;4.77;;;30.60;90.30;;;;;;5007455;28;20531;-68
2023/09/16 10:37:45;;;;;;;11.47;6.30;;;30.80;82.00;;;;;;5010736;28;20835;-69
2023/09/16 10:40:14;;;;;;;11.90;7.80;;;31.10;80.20;;;;;;5011499;28;20446;-68
2023/09/16 10:42:45;;;;;;;8.97;5.10;;;31.20;79.20;;;;;;5007844;28;20446;-69
2023/09/16 10:45:16;;;;;;;8.80;4.13;;;31.30;80.90;;;;;;5008910;28;20437;-68
2023/09/16 10:47:45;;;;;;;8.73;4.53;;;31.70;73.60;;;;;;5011076;28;20884;-69
2023/09/16 10:50:14;;;;;;;8.70;4.57;;;31.80;73.30;;;;;;5011433;28;20529;-69
2023/09/16 10:52:46;;;;;;;8.90;4.57;;;32.00;70.20;;;;;;5007536;28;20487;-68
2023/09/16 10:55:23;;;;;;;7.93;4.03;;;32.20;69.00;;;;;;5010760;28;20503;-68
2023/09/16 10:57:56;;;;;;;8.33;3.87;;;32.60;66.90;;;;;;5010170;28;20505;-68
2023/09/16 11:00:28;;;;;;;7.73;3.70;;;32.70;65.90;;;;;;5010512;28;20433;-68
2023/09/16 11:02:59;;;;;;;8.20;4.20;;;32.80;63.50;;;;;;5010527;28;20521;-68
2023/09/16 11:05:27;;;;;;;9.20;5.03;;;33.00;59.60;;;;;;5010396;28;20448;-69
2023/09/16 11:07:57;;;;;;;8.93;4.50;;;32.20;62.60;;;;;;5009554;28;20466;-67
2023/09/16 11:10:26;;;;;;;8.30;4.30;;;31.40;63.60;;;;;;5010273;28;20960;-68
2023/09/16 11:12:56;;;;;;;10.23;4.23;;;31.10;64.20;;;;;;5010379;28;20516;-67
2023/09/16 11:15:31;;;;;;;9.77;4.93;;;31.10;63.00;;;;;;5010631;28;20454;-68
2023/09/16 11:18:03;;;;;;;9.30;4.57;;;31.50;63.60;;;;;;5009732;28;20457;-68
2023/09/16 11:20:34;;;;;;;10.33;4.67;;;32.00;63.40;;;;;;5010323;28;20507;-68
2023/09/16 11:23:05;;;;;;;9.20;4.70;;;32.70;62.30;;;;;;5010666;28;20438;-70
2023/09/16 11:25:34;;;;;;;8.40;4.53;;;33.40;59.90;;;;;;5010281;28;20453;-69
2023/09/16 11:28:03;;;;;;;8.80;3.80;;;34.10;58.00;;;;;;5009572;28;20470;-70
2023/09/16 11:30:33;;;;;;;7.80;3.50;;;34.50;55.70;;;;;;5009948;28;20832;-69
2023/09/16 11:33:29;;;;;;;7.70;3.30;;;35.00;55.10;;;;;;5010337;28;20488;-69
2023/09/16 11:36:17;;;;;;;8.67;3.40;;;35.60;52.60;;;;;;5000547;28;20536;-69
2023/09/16 11:38:57;;;;;;;8.20;3.53;;;35.70;48.80;;;;;;5009045;28;20461;-68
2023/09/16 11:41:25;;;;;;;8.97;4.20;;;34.50;50.20;;;;;;5008192;28;20438;-69
2023/09/16 11:43:54;;;;;;;8.00;3.53;;;34.10;53.60;;;;;;5006687;28;20841;-69
2023/09/16 11:46:22;;;;;;;7.90;3.60;;;34.50;53.80;;;;;;5006416;28;20485;-69
2023/09/16 11:48:54;;;;;;;7.50;3.23;;;35.40;52.00;;;;;;5007047;28;20854;-70
2023/09/16 11:51:26;;;;;;;7.90;3.70;;;36.30;48.40;;;;;;5010028;28;20446;-70
2023/09/16 11:53:56;;;;;;;8.17;4.17;;;36.90;47.60;;;;;;5008182;28;20558;-70
2023/09/16 11:56:26;;;;;;;7.50;3.33;;;37.40;47.20;;;;;;5008908;28;20960;-69
2023/09/16 11:58:54;;;;;;;7.50;3.30;;;37.40;45.50;;;;;;5007284;28;20552;-69
2023/09/16 12:01:24;;;;;;;7.87;3.50;;;37.70;46.50;;;;;;5007633;28;20519;-69
2023/09/16 12:03:55;;;;;;;7.40;3.40;;;38.10;45.10;;;;;;5009592;28;20434;-70
2023/09/16 12:06:25;;;;;;;7.47;3.17;;;38.40;44.60;;;;;;5007493;28;20448;-69
2023/09/16 12:08:57;;;;;;;7.50;3.27;;;38.70;44.70;;;;;;5007352;28;20833;-70
2023/09/16 12:11:26;;;;;;;7.50;3.57;;;39.30;43.80;;;;;;5006394;28;20930;-70
2023/09/16 12:13:54;;;;;;;7.40;3.20;;;39.50;42.10;;;;;;5007479;28;20534;-70
2023/09/16 12:16:23;;;;;;;7.50;3.87;;;39.70;40.70;;;;;;5005426;28;20858;-69
2023/09/16 12:18:51;;;;;;;7.87;4.20;;;39.00;40.90;;;;;;5007090;28;20481;-70
2023/09/16 12:21:21;;;;;;;8.70;2.80;;;39.10;42.40;;;;;;5008102;28;20533;-69
2023/09/16 12:23:49;;;;;;;6.90;2.80;;;39.40;40.60;;;;;;5008370;28;20521;-70
2023/09/16 12:26:19;;;;;;;7.53;3.07;;;39.20;40.20;;;;;;5008721;28;20497;-70
2023/09/16 12:28:47;;;;;;;7.37;3.37;;;39.80;40.40;;;;;;5006534;28;20857;-69
2023/09/16 12:31:21;;;;;;;7.90;3.10;;;40.20;39.70;;;;;;5007105;28;20445;-69
2023/09/16 12:33:53;;;;;;;6.87;3.00;;;40.70;37.40;;;;;;5009941;28;20904;-70
2023/09/16 12:36:25;;;;;;;7.20;2.90;;;40.70;37.50;;;;;;5004723;28;20441;-70
2023/09/16 12:38:54;;;;;;;6.90;2.80;;;39.90;36.90;;;;;;5009231;28;21023;-69
2023/09/16 12:41:25;;;;;;;8.00;3.13;;;39.90;38.50;;;;;;5006738;28;20448;-69